Terre Haute International Hulman Field
KHUF : now visible

Airfield :











YOU CAN JOIN US ON...

 
LOGIN :

Register | Disclaimer

   EN    FR    IT 

 









Legend :    VFR   Marginal VFR   IFR   Intensive IFR   Very Intensive IFR
Visi :
Ceiling :
>= 8 km
>= 3000ft
5 to 8 km
1000 to 3000 ft
1500m to 5 km
500 to 1000 ft
800 to 1500m
200 to 500 ft
< 800m
< 200 ft
Symbols :   Thunderstorms  Fog  Heavy snow  Heavy precipitations  Wind > 20 kt







- Airport Elevation : 589 ft
- IATA code : HUF


KHUF - Terre Haute International Hulman Field

CURRENT METAR :
  • 201953Z 22005KT 10SM CLR 30/19 A3012 RMK AO2 SLP196 T03000194

EXPIRED METARs :
  • 201853Z 22006KT 10SM CLR 28/20 A3014 RMK AO2 SLP201 T02830200
  • 201753Z 21008KT 10SM FEW060 SCT075 BKN090 28/21 A3015 RMK AO2 SLP206 T02780206 10283 20161 58006

TAF KHUF
Valid from the 20 at 18:00 until the 21 at 18:00 UTC


201720Z 2018/2118 20006KT P6SM SCT030 BKN100
FM210000 19005KT P6SM SCT070
FM210300 17005KT P6SM FEW250
FM211500 20010KT P6SM FEW040
No reported NOTAMs for that airfield.



MET'MAP, your aeronautical weather chart ! - Copyright ORBIFLY December 2007 - Disclaimer

ORBIFLY MET'MAP TEAM :

Programming & Development : Alexandra Zaïnal
Concept & Development : Baudouin d'Aumeries
Co-Development & Prog : Marc-Olivier Méhu
Technical & hardware support : Manuel Goepfert

Contact : metmap@orbifly.com




SOURCES & CREDITS :

   NOAA       Earth
Advisory